Time;durP1;ratioP1;P1;durP2;ratioP2;P2;SDS_P1;SDS_P2;PMS_P1;PMS_P2;Temp;Humidity;BMP_temperature;BMP_pressure;BME280_temperature;BME280_humidity;BME280_pressure;Samples;Min_cycle;Max_cycle;Signal;HPM_P1;HPM_P2
2022/09/17 00:01:19;;;;;;;3.90;2.47;;;10.10;99.90;;;;;;5042038;28;20207;-83
2022/09/17 00:03:51;;;;;;;3.85;1.95;;;10.00;99.90;;;;;;5036204;28;20293;-84
2022/09/17 00:06:19;;;;;;;2.97;2.47;;;10.00;99.90;;;;;;5031488;28;20326;-82
2022/09/17 00:08:46;;;;;;;4.03;2.30;;;9.90;99.90;;;;;;5040786;28;20439;-84
2022/09/17 00:11:20;;;;;;;2.53;2.33;;;9.80;99.90;;;;;;5044163;28;20254;-82
2022/09/17 00:13:48;;;;;;;3.13;2.83;;;9.80;99.90;;;;;;5048922;28;20199;-82
2022/09/17 00:16:26;;;;;;;3.97;2.97;;;9.80;99.90;;;;;;5044088;28;20216;-82
2022/09/17 00:18:53;;;;;;;4.82;2.65;;;9.80;99.90;;;;;;5041364;28;20485;-81
2022/09/17 00:21:21;;;;;;;2.45;1.95;;;9.90;99.90;;;;;;5033251;28;20305;-84
2022/09/17 00:23:52;;;;;;;4.35;2.30;;;9.90;99.90;;;;;;5048953;28;20433;-82
2022/09/17 00:26:19;;;;;;;2.70;1.90;;;10.00;99.90;;;;;;5045746;28;20254;-82
2022/09/17 00:28:50;;;;;;;2.38;2.10;;;9.90;99.90;;;;;;5033946;28;20499;-83
2022/09/17 00:31:17;;;;;;;1.70;1.60;;;9.80;99.90;;;;;;5048775;28;20207;-82
2022/09/17 00:33:44;;;;;;;3.88;2.38;;;9.80;99.90;;;;;;5035429;28;20522;-82
2022/09/17 00:36:11;;;;;;;2.70;1.88;;;9.60;99.90;;;;;;5039854;28;20215;-81
2022/09/17 00:38:38;;;;;;;2.35;2.13;;;9.80;99.90;;;;;;5035871;28;20272;-83
2022/09/17 00:41:06;;;;;;;3.78;2.22;;;9.80;99.90;;;;;;5038082;28;20402;-83
2022/09/17 00:43:36;;;;;;;2.33;1.70;;;9.90;99.90;;;;;;5040541;28;20225;-84
2022/09/17 00:46:10;;;;;;;3.83;2.33;;;9.90;99.90;;;;;;5041840;28;20202;-84
2022/09/17 00:48:38;;;;;;;2.55;2.20;;;9.90;99.90;;;;;;5045527;28;20266;-85
2022/09/17 00:51:07;;;;;;;1.70;1.58;;;9.90;99.90;;;;;;5056547;28;20291;-83
2022/09/17 00:53:34;;;;;;;2.33;1.83;;;9.80;99.90;;;;;;5044510;28;20204;-83
2022/09/17 00:56:10;;;;;;;2.35;1.85;;;9.80;99.90;;;;;;5049740;28;20218;-85
2022/09/17 00:58:38;;;;;;;2.58;2.00;;;9.90;99.90;;;;;;5043953;28;20225;-84
2022/09/17 01:01:07;;;;;;;1.77;1.65;;;9.90;99.90;;;;;;5036285;28;20199;-83
2022/09/17 01:03:34;;;;;;;4.15;2.38;;;9.80;99.90;;;;;;5030292;28;20537;-83
2022/09/17 01:06:10;;;;;;;6.18;2.22;;;9.90;99.90;;;;;;5041467;28;20201;-84
2022/09/17 01:08:56;;;;;;;3.00;1.55;;;9.70;99.90;;;;;;5035697;28;20209;-83
2022/09/17 01:11:57;;;;;;;2.50;1.95;;;9.70;99.90;;;;;;5045041;28;20198;-85
2022/09/17 01:14:57;;;;;;;2.47;1.70;;;9.80;99.90;;;;;;5045344;28;20453;-82
2022/09/17 01:17:53;;;;;;;3.85;2.05;;;9.90;99.90;;;;;;5028350;28;20224;-84
2022/09/17 01:20:48;;;;;;;2.58;2.33;;;9.80;99.90;;;;;;5044945;28;20203;-84
2022/09/17 01:23:39;;;;;;;3.15;1.80;;;9.90;99.90;;;;;;5028712;28;20229;-82
2022/09/17 01:26:40;;;;;;;3.38;1.95;;;9.80;99.90;;;;;;5034519;28;20291;-85
2022/09/17 01:29:19;;;;;;;4.65;2.08;;;9.70;99.90;;;;;;5039579;28;20202;-83
2022/09/17 01:31:58;;;;;;;5.20;1.85;;;9.70;99.90;;;;;;5040540;28;20254;-81
2022/09/17 01:34:33;;;;;;;1.92;1.73;;;9.60;99.90;;;;;;5038106;28;20453;-81
2022/09/17 01:37:24;;;;;;;2.40;1.73;;;9.70;99.90;;;;;;5040457;28;20382;-83
2022/09/17 01:40:27;;;;;;;1.88;1.70;;;9.60;99.90;;;;;;5037619;28;20195;-82
2022/09/17 01:43:03;;;;;;;2.08;1.90;;;9.80;99.90;;;;;;5032924;28;20233;-81
2022/09/17 01:46:01;;;;;;;3.85;1.95;;;9.80;99.90;;;;;;5038957;28;20212;-82
2022/09/17 01:48:39;;;;;;;2.67;1.85;;;9.70;99.90;;;;;;5035433;28;20211;-82
2022/09/17 01:51:07;;;;;;;2.85;2.50;;;9.70;99.90;;;;;;5038125;28;20199;-83
2022/09/17 01:53:40;;;;;;;4.18;1.90;;;9.60;99.90;;;;;;5040340;28;20210;-82
2022/09/17 01:56:09;;;;;;;2.63;2.20;;;9.70;99.90;;;;;;5041378;28;20280;-83
2022/09/17 01:58:48;;;;;;;2.83;2.17;;;10.00;99.90;;;;;;5040648;28;20224;-82
2022/09/17 02:01:19;;;;;;;2.20;2.05;;;9.90;99.90;;;;;;5036455;28;20509;-83
2022/09/17 02:03:55;;;;;;;4.28;2.28;;;9.80;99.90;;;;;;5044781;28;20292;-83
2022/09/17 02:06:28;;;;;;;2.88;2.17;;;9.90;99.90;;;;;;5035399;28;20260;-82
2022/09/17 02:09:18;;;;;;;2.45;1.88;;;9.80;99.90;;;;;;5038281;28;20320;-83
2022/09/17 02:11:54;;;;;;;3.47;1.92;;;9.60;99.90;;;;;;5035660;28;20242;-83
2022/09/17 02:14:30;;;;;;;2.95;2.75;;;9.60;99.90;;;;;;5034145;28;20255;-81
2022/09/17 02:17:06;;;;;;;4.53;2.47;;;9.60;99.90;;;;;;5029660;28;20194;-82
2022/09/17 02:19:36;;;;;;;2.85;2.63;;;9.80;99.90;;;;;;5038033;28;20199;-80
2022/09/17 02:22:06;;;;;;;2.40;2.20;;;9.80;99.90;;;;;;5048722;28;20206;-82
2022/09/17 02:24:48;;;;;;;2.88;2.67;;;9.50;99.90;;;;;;5041834;28;20226;-82
2022/09/17 02:27:28;;;;;;;4.25;2.10;;;9.50;99.90;;;;;;5038393;28;20324;-84
2022/09/17 02:29:55;;;;;;;2.95;2.20;;;9.50;99.90;;;;;;5027271;28;20254;-83
2022/09/17 02:32:23;;;;;;;3.65;2.88;;;9.40;99.90;;;;;;5035433;28;20205;-83
2022/09/17 02:34:50;;;;;;;4.88;2.25;;;9.30;99.90;;;;;;5037208;28;20227;-83
2022/09/17 02:37:18;;;;;;;2.58;2.38;;;9.20;99.90;;;;;;5039767;28;20201;-84
2022/09/17 02:39:44;;;;;;;4.20;2.90;;;9.30;99.90;;;;;;5035236;28;20202;-84
2022/09/17 02:42:39;;;;;;;3.08;2.30;;;9.40;99.90;;;;;;5040007;28;20264;-83
2022/09/17 02:45:06;;;;;;;2.35;2.05;;;9.40;99.90;;;;;;5039542;28;20226;-83
2022/09/17 02:48:04;;;;;;;2.42;2.10;;;9.50;99.90;;;;;;5039185;28;20202;-84
2022/09/17 02:51:10;;;;;;;2.92;2.47;;;9.80;99.90;;;;;;5034671;28;20462;-84
2022/09/17 02:54:11;;;;;;;2.17;1.98;;;10.10;99.90;;;;;;5039792;28;20213;-85
2022/09/17 02:57:00;;;;;;;2.30;2.10;;;10.10;99.90;;;;;;5039461;28;20202;-85
2022/09/17 02:59:42;;;;;;;3.15;2.20;;;10.50;99.90;;;;;;5042562;28;20199;-83
2022/09/17 03:02:23;;;;;;;2.28;2.08;;;10.20;99.90;;;;;;5041832;28;20319;-84
2022/09/17 03:04:51;;;;;;;2.30;2.10;;;10.60;99.90;;;;;;5041644;28;20218;-82
2022/09/17 03:07:19;;;;;;;6.75;2.85;;;10.60;99.90;;;;;;5041835;28;20417;-82
2022/09/17 03:09:46;;;;;;;2.50;2.13;;;10.60;99.90;;;;;;5040694;28;20207;-82
2022/09/17 03:12:14;;;;;;;2.63;2.20;;;10.70;99.90;;;;;;5054386;28;20203;-82
2022/09/17 03:14:40;;;;;;;2.08;1.90;;;10.80;99.90;;;;;;5039396;28;20400;-82
2022/09/17 03:17:08;;;;;;;1.85;1.75;;;11.00;99.90;;;;;;5037392;28;20203;-83
2022/09/17 03:19:37;;;;;;;2.17;1.98;;;11.10;99.90;;;;;;5049271;28;20211;-82
2022/09/17 03:22:04;;;;;;;3.88;1.90;;;11.10;99.90;;;;;;5036997;28;20200;-83
2022/09/17 03:24:30;;;;;;;2.03;1.80;;;11.20;99.90;;;;;;5037937;28;20231;-82
2022/09/17 03:26:57;;;;;;;2.55;2.20;;;11.20;99.90;;;;;;5042154;28;20198;-84
2022/09/17 03:29:24;;;;;;;3.92;2.30;;;11.20;99.90;;;;;;5059613;28;20196;-83
2022/09/17 03:31:51;;;;;;;2.60;2.13;;;11.20;99.90;;;;;;5048766;28;20199;-83
2022/09/17 03:34:19;;;;;;;2.33;2.00;;;11.20;99.90;;;;;;5051852;28;20211;-85
2022/09/17 03:36:46;;;;;;;2.33;2.13;;;11.10;99.90;;;;;;5049978;28;20200;-84
2022/09/17 03:39:13;;;;;;;2.17;1.83;;;11.20;99.90;;;;;;5037569;28;20419;-84
2022/09/17 03:41:40;;;;;;;1.60;1.50;;;11.20;99.90;;;;;;5030440;28;20211;-84
2022/09/17 03:44:06;;;;;;;2.35;1.65;;;11.00;99.90;;;;;;5038365;28;20224;-84
2022/09/17 03:46:33;;;;;;;2.38;1.90;;;10.90;99.90;;;;;;5037580;28;20253;-80
2022/09/17 03:49:00;;;;;;;2.60;2.40;;;10.90;99.90;;;;;;5038767;28;20199;-80
2022/09/17 03:51:27;;;;;;;1.98;1.88;;;10.90;99.90;;;;;;5036221;28;20257;-81
2022/09/17 03:53:54;;;;;;;1.92;1.83;;;11.00;99.90;;;;;;5039831;28;20557;-82
2022/09/17 03:56:21;;;;;;;2.25;2.03;;;11.10;99.90;;;;;;5042850;28;20387;-80
2022/09/17 03:58:48;;;;;;;6.60;3.13;;;11.00;99.90;;;;;;5042535;28;20262;-81
2022/09/17 04:01:15;;;;;;;2.53;2.30;;;11.10;99.90;;;;;;5042128;28;20211;-84
2022/09/17 04:03:43;;;;;;;3.33;2.72;;;11.20;99.90;;;;;;5039822;28;20216;-81
2022/09/17 04:06:09;;;;;;;5.68;2.28;;;11.20;99.90;;;;;;5042334;28;20199;-83
2022/09/17 04:08:36;;;;;;;1.95;1.85;;;11.10;99.90;;;;;;5040783;28;20235;-82
2022/09/17 04:11:03;;;;;;;3.17;2.30;;;11.10;99.90;;;;;;5041617;28;20532;-83
2022/09/17 04:13:30;;;;;;;3.90;2.15;;;11.10;99.90;;;;;;5038313;28;20313;-82
2022/09/17 04:15:57;;;;;;;2.97;2.67;;;11.20;99.90;;;;;;5035172;28;20203;-81
2022/09/17 04:18:24;;;;;;;2.85;2.60;;;11.30;99.90;;;;;;5037684;28;20203;-80
2022/09/17 04:20:51;;;;;;;2.92;2.72;;;11.10;99.90;;;;;;5040362;28;20203;-79
2022/09/17 04:23:18;;;;;;;4.45;2.60;;;11.00;99.90;;;;;;5037119;28;20250;-80
2022/09/17 04:25:45;;;;;;;2.85;2.60;;;11.10;99.90;;;;;;5038784;28;20197;-80
2022/09/17 04:28:12;;;;;;;3.90;2.35;;;11.20;99.90;;;;;;5042264;28;20246;-82
2022/09/17 04:30:41;;;;;;;2.42;2.22;;;11.30;99.90;;;;;;5039130;28;20208;-82
2022/09/17 04:33:09;;;;;;;3.83;3.17;;;11.30;99.90;;;;;;5039350;28;20208;-81
2022/09/17 04:35:36;;;;;;;4.18;2.72;;;11.30;99.90;;;;;;5049675;28;20207;-82
2022/09/17 04:38:03;;;;;;;2.70;2.50;;;11.40;99.90;;;;;;5045520;28;20253;-84
2022/09/17 04:40:30;;;;;;;4.75;2.95;;;11.40;99.90;;;;;;5043678;28;20250;-82
2022/09/17 04:42:58;;;;;;;3.50;2.70;;;11.20;99.90;;;;;;5037654;28;20230;-84
2022/09/17 04:45:25;;;;;;;2.97;2.75;;;11.30;99.90;;;;;;5040543;28;20319;-84
2022/09/17 04:47:52;;;;;;;2.90;2.60;;;11.20;99.90;;;;;;5038612;28;20200;-84
2022/09/17 04:50:20;;;;;;;4.20;2.45;;;11.20;99.90;;;;;;5041112;28;20478;-83
2022/09/17 04:52:47;;;;;;;3.42;3.13;;;11.20;99.90;;;;;;5033309;28;20234;-86
2022/09/17 04:55:15;;;;;;;3.47;2.80;;;11.00;99.90;;;;;;5039859;28;20230;-84
2022/09/17 04:57:47;;;;;;;5.35;3.72;;;10.90;99.90;;;;;;5040522;28;20207;-83
2022/09/17 05:00:16;;;;;;;6.88;3.03;;;11.00;99.90;;;;;;5038042;28;20239;-85
2022/09/17 05:02:48;;;;;;;4.78;2.85;;;11.20;99.90;;;;;;5047824;28;20211;-83
2022/09/17 05:05:17;;;;;;;3.17;2.97;;;11.20;99.90;;;;;;5037164;28;20248;-83
2022/09/17 05:07:43;;;;;;;4.15;3.72;;;11.50;99.90;;;;;;5038838;28;20208;-82
2022/09/17 05:10:12;;;;;;;4.10;3.17;;;11.40;99.90;;;;;;5040849;28;20199;-83
2022/09/17 05:12:39;;;;;;;2.67;2.35;;;11.60;99.90;;;;;;5044965;28;20541;-83
2022/09/17 05:15:07;;;;;;;6.22;3.13;;;11.50;99.90;;;;;;5054500;28;20262;-81
2022/09/17 05:17:34;;;;;;;4.03;2.78;;;11.60;99.90;;;;;;5040896;28;20259;-81
2022/09/17 05:20:01;;;;;;;4.85;3.80;;;11.60;99.90;;;;;;5041529;28;20227;-84
2022/09/17 05:22:27;;;;;;;2.63;2.42;;;11.70;99.90;;;;;;5039325;28;20203;-84
2022/09/17 05:24:54;;;;;;;3.45;2.70;;;11.70;99.90;;;;;;5044627;28;20281;-81
2022/09/17 05:27:21;;;;;;;3.72;2.20;;;11.80;99.90;;;;;;5043590;28;20205;-80
2022/09/17 05:29:48;;;;;;;2.90;2.70;;;11.90;99.90;;;;;;5041160;28;20246;-79
2022/09/17 05:32:15;;;;;;;4.65;2.45;;;12.00;99.90;;;;;;5036122;28;20270;-80
2022/09/17 05:34:42;;;;;;;2.45;2.25;;;12.00;99.90;;;;;;5038647;28;20207;-80
2022/09/17 05:37:10;;;;;;;3.72;2.70;;;12.10;99.90;;;;;;5049425;28;20199;-80
2022/09/17 05:39:37;;;;;;;3.13;2.15;;;12.20;99.90;;;;;;5046523;28;20204;-79
2022/09/17 05:42:04;;;;;;;2.30;2.10;;;12.20;99.90;;;;;;5040660;28;20200;-80
2022/09/17 05:44:31;;;;;;;2.85;2.50;;;12.30;99.90;;;;;;5035626;28;20725;-80
2022/09/17 05:46:58;;;;;;;2.30;2.10;;;12.50;99.90;;;;;;5039377;28;20196;-78
2022/09/17 05:49:25;;;;;;;2.33;2.13;;;12.60;99.90;;;;;;5038953;28;20196;-80
2022/09/17 05:51:51;;;;;;;4.78;2.30;;;12.50;99.90;;;;;;5038730;28;20200;-80
2022/09/17 05:54:19;;;;;;;2.50;2.10;;;12.60;99.90;;;;;;5040546;28;20503;-81
2022/09/17 05:56:45;;;;;;;4.05;2.58;;;12.60;99.90;;;;;;5034599;28;20207;-80
2022/09/17 05:59:13;;;;;;;3.25;2.30;;;12.70;99.90;;;;;;5045324;28;20368;-82
2022/09/17 06:01:41;;;;;;;3.72;2.45;;;12.70;99.90;;;;;;5039279;28;20196;-81
2022/09/17 06:04:08;;;;;;;8.93;2.53;;;12.90;99.90;;;;;;5060186;28;20215;-83
2022/09/17 06:06:36;;;;;;;3.25;2.80;;;12.90;99.90;;;;;;5045164;28;20234;-79
2022/09/17 06:09:04;;;;;;;1.83;1.73;;;13.00;99.90;;;;;;5051247;28;20215;-82
2022/09/17 06:11:31;;;;;;;3.03;2.72;;;13.10;99.90;;;;;;5041614;28;20300;-81
2022/09/17 06:13:59;;;;;;;6.40;2.13;;;13.10;99.90;;;;;;5042082;28;20195;-79
2022/09/17 06:16:26;;;;;;;3.70;2.80;;;13.10;99.90;;;;;;5049672;28;20255;-80
2022/09/17 06:18:53;;;;;;;7.90;3.75;;;13.30;99.90;;;;;;5034531;28;20201;-81
2022/09/17 06:21:21;;;;;;;3.15;2.40;;;13.40;99.90;;;;;;5040784;28;20242;-83
2022/09/17 06:23:49;;;;;;;2.33;2.13;;;13.70;99.90;;;;;;5037005;28;20246;-83
2022/09/17 06:26:18;;;;;;;3.38;2.88;;;13.70;99.90;;;;;;5036496;28;20200;-85
2022/09/17 06:28:45;;;;;;;2.40;2.20;;;13.40;99.90;;;;;;5037572;28;20208;-81
2022/09/17 06:31:12;;;;;;;3.08;2.80;;;13.20;99.90;;;;;;5038338;28;20254;-83
2022/09/17 06:33:40;;;;;;;10.05;1.88;;;13.10;99.90;;;;;;5039994;28;20211;-86
2022/09/17 06:36:10;;;;;;;5.00;2.67;;;13.10;99.90;;;;;;5041977;28;20223;-81
2022/09/17 06:38:41;;;;;;;5.35;3.00;;;13.10;99.90;;;;;;5041837;28;20197;-82
2022/09/17 06:41:08;;;;;;;3.33;2.40;;;13.10;99.90;;;;;;5041077;28;20192;-82
2022/09/17 06:43:35;;;;;;;4.50;2.10;;;13.20;99.90;;;;;;5042065;28;20214;-82
2022/09/17 06:46:07;;;;;;;5.78;2.28;;;13.40;99.90;;;;;;5041459;28;20286;-83
2022/09/17 06:48:36;;;;;;;3.47;2.22;;;13.50;99.90;;;;;;5041277;28;20200;-80
2022/09/17 06:51:06;;;;;;;5.13;2.47;;;13.60;99.90;;;;;;5040804;28;20246;-80
2022/09/17 06:53:36;;;;;;;8.65;2.30;;;13.60;99.90;;;;;;5039857;28;20227;-85
2022/09/17 06:56:05;;;;;;;7.18;2.22;;;13.60;99.90;;;;;;5049772;28;20357;-84
2022/09/17 06:58:36;;;;;;;6.65;2.85;;;13.50;99.90;;;;;;5046982;28;20235;-82
2022/09/17 07:01:04;;;;;;;3.35;2.53;;;13.50;99.90;;;;;;5040850;28;20205;-85
2022/09/17 07:03:35;;;;;;;2.80;2.17;;;13.40;99.90;;;;;;5042386;28;20236;-82
2022/09/17 07:06:03;;;;;;;3.55;2.88;;;13.60;99.90;;;;;;5035530;28;20217;-83
2022/09/17 07:08:38;;;;;;;6.00;2.70;;;13.70;99.90;;;;;;5045144;28;20239;-83
2022/09/17 07:11:05;;;;;;;2.78;2.00;;;13.90;99.90;;;;;;5047603;28;20227;-82
2022/09/17 07:13:35;;;;;;;4.28;2.60;;;14.20;99.90;;;;;;5054667;28;20204;-84
2022/09/17 07:16:04;;;;;;;5.07;2.70;;;14.20;99.90;;;;;;5042471;28;20218;-85
2022/09/17 07:18:31;;;;;;;3.15;2.63;;;14.10;99.90;;;;;;5042060;28;20204;-82
2022/09/17 07:21:04;;;;;;;3.75;2.30;;;13.90;99.90;;;;;;5037498;28;20197;-83
2022/09/17 07:23:32;;;;;;;3.75;3.08;;;13.90;99.90;;;;;;5037230;28;20234;-83
2022/09/17 07:26:02;;;;;;;3.47;2.35;;;13.80;99.90;;;;;;5039287;28;20439;-85
2022/09/17 07:28:29;;;;;;;2.42;2.28;;;13.80;99.90;;;;;;5040057;28;20227;-84
2022/09/17 07:30:57;;;;;;;5.75;2.70;;;13.70;99.90;;;;;;5036889;28;20196;-87
2022/09/17 07:33:26;;;;;;;3.60;2.33;;;13.70;99.90;;;;;;5042687;28;20254;-83
2022/09/17 07:35:58;;;;;;;4.40;2.47;;;13.80;99.90;;;;;;5046965;28;20234;-87
2022/09/17 07:38:27;;;;;;;7.57;2.45;;;14.00;99.90;;;;;;5045819;28;20207;-83
2022/09/17 07:41:16;;;;;;;3.50;2.30;;;13.90;99.90;;;;;;5043490;28;20193;-81
2022/09/17 07:43:45;;;;;;;3.47;3.03;;;13.80;99.90;;;;;;5044648;28;20204;-83
2022/09/17 07:46:18;;;;;;;5.63;2.53;;;13.90;99.90;;;;;;5042455;28;20221;-80
2022/09/17 07:48:46;;;;;;;2.72;2.50;;;13.90;99.90;;;;;;5040336;28;20203;-85
2022/09/17 07:51:15;;;;;;;2.65;2.13;;;13.90;99.90;;;;;;5040642;28;20240;-87
2022/09/17 07:53:42;;;;;;;6.20;2.45;;;13.90;99.90;;;;;;5043929;28;20204;-83
2022/09/17 07:56:10;;;;;;;4.55;2.65;;;13.90;99.90;;;;;;5034922;28;20197;-86
2022/09/17 07:58:38;;;;;;;5.90;2.63;;;14.20;99.90;;;;;;5043160;28;20296;-84
2022/09/17 08:01:07;;;;;;;6.32;2.55;;;14.50;99.90;;;;;;5036405;28;20201;-85
2022/09/17 08:03:35;;;;;;;5.03;2.78;;;14.50;99.90;;;;;;5037326;28;20202;-88
2022/09/17 08:06:09;;;;;;;7.03;2.15;;;14.70;99.90;;;;;;5035859;28;20220;-85
2022/09/17 08:08:38;;;;;;;2.60;2.40;;;14.90;99.90;;;;;;5043845;28;20209;-89
2022/09/17 08:11:11;;;;;;;9.80;2.60;;;14.90;99.90;;;;;;5044315;28;20202;-83
2022/09/17 08:13:38;;;;;;;2.83;2.50;;;14.80;99.90;;;;;;5041964;28;20217;-84
2022/09/17 08:16:14;;;;;;;2.55;2.45;;;14.90;99.90;;;;;;5036626;28;20477;-83
2022/09/17 08:18:42;;;;;;;2.83;2.42;;;14.80;99.90;;;;;;5034378;28;20303;-83
2022/09/17 08:21:11;;;;;;;2.90;2.13;;;15.00;99.90;;;;;;5041171;28;20201;-86
2022/09/17 08:23:40;;;;;;;3.20;2.00;;;15.20;99.90;;;;;;5028649;28;20203;-82
2022/09/17 08:26:12;;;;;;;5.38;3.08;;;15.30;99.90;;;;;;5035726;28;20229;-87
2022/09/17 08:28:39;;;;;;;10.20;2.80;;;15.50;99.90;;;;;;5036239;28;20227;-82
2022/09/17 08:31:07;;;;;;;7.32;2.83;;;15.80;99.90;;;;;;5040201;28;20210;-85
2022/09/17 08:33:36;;;;;;;10.90;2.23;;;16.10;99.90;;;;;;5026496;28;20206;-87
2022/09/17 08:36:05;;;;;;;2.70;2.13;;;16.30;99.90;;;;;;5034523;28;20432;-85
2022/09/17 08:38:37;;;;;;;8.60;2.90;;;16.10;99.90;;;;;;5041284;28;20440;-83
2022/09/17 08:41:13;;;;;;;9.40;2.87;;;15.80;99.90;;;;;;5038394;28;20487;-82
2022/09/17 08:44:03;;;;;;;4.85;2.63;;;15.40;99.90;;;;;;5040707;28;20661;-85
2022/09/17 08:46:52;;;;;;;3.65;2.40;;;15.30;99.90;;;;;;5023847;28;20241;-85
2022/09/17 08:49:35;;;;;;;3.63;2.37;;;15.30;99.90;;;;;;5031702;28;20525;-85
2022/09/17 08:52:43;;;;;;;2.83;2.20;;;15.50;99.90;;;;;;5037496;28;20410;-82
2022/09/17 08:55:32;;;;;;;3.03;2.50;;;15.90;99.90;;;;;;5038976;28;20782;-84
2022/09/17 08:58:37;;;;;;;4.37;3.43;;;16.10;99.90;;;;;;5043012;28;20483;-85
2022/09/17 09:01:26;;;;;;;5.63;2.93;;;16.20;99.90;;;;;;5043566;28;20794;-82
2022/09/17 09:04:12;;;;;;;3.20;2.47;;;16.20;99.90;;;;;;5044494;28;20442;-84
2022/09/17 09:06:49;;;;;;;3.17;2.87;;;15.70;99.90;;;;;;5046362;28;20480;-83
2022/09/17 09:09:21;;;;;;;10.63;3.03;;;15.30;99.90;;;;;;5039607;28;20771;-87
2022/09/17 09:11:52;;;;;;;5.10;3.70;;;15.00;99.90;;;;;;5047198;28;20512;-85
2022/09/17 09:14:31;;;;;;;2.88;2.67;;;14.90;99.90;;;;;;5042626;28;20435;-84
2022/09/17 09:17:02;;;;;;;5.00;3.20;;;14.70;99.90;;;;;;5039724;28;20205;-83
2022/09/17 09:19:32;;;;;;;3.85;3.55;;;14.50;99.90;;;;;;5048506;28;20538;-84
2022/09/17 09:22:10;;;;;;;5.22;2.78;;;14.50;99.90;;;;;;5048955;28;20244;-85
2022/09/17 09:24:41;;;;;;;2.90;2.70;;;14.50;99.90;;;;;;5039848;28;20192;-83
2022/09/17 09:27:19;;;;;;;6.50;3.55;;;14.70;99.90;;;;;;5017576;28;20245;-84
2022/09/17 09:30:02;;;;;;;3.70;3.40;;;14.60;99.90;;;;;;5043991;28;20236;-86
2022/09/17 09:33:01;;;;;;;3.78;3.47;;;14.70;99.90;;;;;;5050156;28;20190;-84
2022/09/17 09:35:32;;;;;;;3.42;3.10;;;14.80;99.90;;;;;;5050137;28;20425;-84
2022/09/17 09:38:09;;;;;;;4.88;3.80;;;14.80;99.90;;;;;;5036963;28;20292;-84
2022/09/17 09:40:49;;;;;;;3.50;3.20;;;14.70;99.90;;;;;;5040506;28;20217;-82
2022/09/17 09:43:48;;;;;;;4.60;3.83;;;14.60;99.90;;;;;;5032054;28;20188;-83
2022/09/17 09:47:12;;;;;;;6.13;3.00;;;14.50;99.90;;;;;;5033523;28;20432;-83
2022/09/17 09:49:39;;;;;;;5.63;3.30;;;14.50;99.90;;;;;;5038680;28;20239;-83
2022/09/17 09:52:22;;;;;;;3.88;3.40;;;14.60;99.90;;;;;;5041375;28;20214;-84
2022/09/17 09:55:14;;;;;;;4.15;3.83;;;14.60;99.90;;;;;;5042379;28;20235;-83
2022/09/17 09:58:20;;;;;;;4.35;3.95;;;14.60;99.90;;;;;;5029930;28;20257;-83
2022/09/17 10:00:47;;;;;;;5.20;3.58;;;14.70;99.90;;;;;;5034820;28;20189;-83
2022/09/17 10:03:27;;;;;;;3.33;3.03;;;14.70;99.90;;;;;;5041516;28;20199;-83
2022/09/17 10:06:00;;;;;;;4.80;3.42;;;14.80;99.90;;;;;;5030399;28;20219;-82
2022/09/17 10:08:31;;;;;;;4.55;4.25;;;14.90;99.90;;;;;;5037663;28;20213;-83
2022/09/17 10:11:05;;;;;;;5.03;4.57;;;14.90;99.90;;;;;;5035443;28;20247;-83
2022/09/17 10:13:34;;;;;;;4.30;3.17;;;15.10;99.90;;;;;;5034806;28;20202;-81
2022/09/17 10:16:19;;;;;;;3.55;3.25;;;15.40;99.90;;;;;;5042596;28;20205;-87
2022/09/17 10:18:48;;;;;;;3.72;3.42;;;15.50;99.90;;;;;;5042137;28;20268;-85
2022/09/17 10:21:29;;;;;;;5.47;3.55;;;15.60;99.90;;;;;;5042086;28;20197;-84
2022/09/17 10:23:58;;;;;;;3.70;3.25;;;15.60;99.90;;;;;;5037244;28;20237;-84
2022/09/17 10:26:28;;;;;;;3.92;3.33;;;15.50;99.90;;;;;;5041366;28;20421;-82
2022/09/17 10:28:58;;;;;;;5.50;3.00;;;15.50;99.90;;;;;;5042519;28;20202;-84
2022/09/17 10:31:25;;;;;;;5.72;3.20;;;15.50;99.90;;;;;;5053493;28;20205;-87
2022/09/17 10:34:01;;;;;;;3.25;2.75;;;15.50;99.90;;;;;;5040169;28;20207;-84
2022/09/17 10:36:43;;;;;;;4.17;3.83;;;15.60;99.90;;;;;;5042262;28;20233;-87
2022/09/17 10:39:25;;;;;;;4.20;3.15;;;15.40;99.90;;;;;;5036582;28;20433;-87
2022/09/17 10:42:17;;;;;;;3.00;2.00;;;15.30;99.90;;;;;;5046922;28;20281;-81
2022/09/17 10:44:56;;;;;;;2.53;2.20;;;15.20;99.90;;;;;;5043494;28;20489;-85
2022/09/17 10:47:34;;;;;;;2.35;2.15;;;15.10;99.90;;;;;;5050293;28;20200;-87
2022/09/17 10:50:16;;;;;;;5.25;2.75;;;15.10;99.90;;;;;;5042241;28;20253;-86
2022/09/17 10:52:50;;;;;;;2.45;2.00;;;15.10;99.90;;;;;;5042553;28;20232;-87
2022/09/17 10:55:46;;;;;;;3.00;2.30;;;15.10;99.90;;;;;;5038241;28;20219;-88
2022/09/17 10:58:13;;;;;;;3.08;1.90;;;15.20;99.90;;;;;;5038143;28;20202;-86
2022/09/17 11:00:57;;;;;;;1.93;1.80;;;15.40;99.90;;;;;;5043038;28;20245;-87
2022/09/17 11:03:38;;;;;;;2.67;2.13;;;15.90;99.90;;;;;;5049443;28;20462;-85
2022/09/17 11:06:34;;;;;;;2.70;2.37;;;16.50;99.90;;;;;;5046426;28;20542;-84
2022/09/17 11:09:09;;;;;;;2.33;2.13;;;17.30;99.90;;;;;;5043880;28;20508;-82
2022/09/17 11:12:04;;;;;;;3.97;2.13;;;17.30;99.90;;;;;;5039847;28;20433;-84
2022/09/17 11:14:51;;;;;;;3.03;2.03;;;17.30;99.90;;;;;;5041513;28;20545;-89
2022/09/17 11:17:36;;;;;;;2.23;1.83;;;17.30;99.90;;;;;;5044016;28;20583;-88
2022/09/17 11:20:21;;;;;;;3.40;1.83;;;17.40;99.90;;;;;;5045249;28;20750;-88
2022/09/17 11:23:09;;;;;;;1.73;1.63;;;18.00;99.90;;;;;;5043748;28;20453;-88
2022/09/17 11:26:16;;;;;;;3.03;2.23;;;17.70;99.90;;;;;;5048514;28;20498;-87
2022/09/17 11:29:08;;;;;;;9.23;2.97;;;17.50;99.90;;;;;;4996109;28;20488;-87
2022/09/17 11:32:16;;;;;;;3.03;1.80;;;17.30;99.90;;;;;;5044962;28;20439;-88
2022/09/17 11:34:46;;;;;;;4.37;1.87;;;17.70;99.90;;;;;;5007267;28;20505;-84
2022/09/17 11:37:22;;;;;;;3.20;2.03;;;18.00;99.90;;;;;;5035265;28;20439;-89
2022/09/17 11:39:57;;;;;;;4.30;2.50;;;17.80;99.90;;;;;;5043807;28;20459;-82
2022/09/17 11:42:30;;;;;;;2.50;1.90;;;17.70;99.90;;;;;;5046203;28;20454;-84
2022/09/17 11:45:03;;;;;;;1.80;1.70;;;17.40;99.90;;;;;;5038570;28;20436;-84
2022/09/17 11:47:36;;;;;;;1.53;1.43;;;17.50;99.90;;;;;;5040288;28;20666;-88
2022/09/17 11:50:26;;;;;;;2.73;1.90;;;17.60;99.90;;;;;;5044986;28;20487;-83
2022/09/17 11:53:14;;;;;;;1.60;1.50;;;17.40;99.90;;;;;;5050014;28;20645;-81
2022/09/17 11:55:48;;;;;;;1.73;1.63;;;17.60;99.90;;;;;;5044900;28;20483;-81
2022/09/17 11:58:39;;;;;;;2.87;1.70;;;17.90;99.90;;;;;;5042425;28;20583;-83
2022/09/17 12:01:40;;;;;;;1.93;1.50;;;18.30;99.90;;;;;;5032959;28;20525;-80
2022/09/17 12:04:29;;;;;;;1.37;1.23;;;18.20;99.90;;;;;;5020531;28;20493;-82
2022/09/17 12:07:03;;;;;;;2.70;1.70;;;17.70;99.90;;;;;;5038304;28;20465;-82
2022/09/17 12:09:32;;;;;;;1.83;1.23;;;17.40;99.90;;;;;;5033962;28;20445;-81
2022/09/17 12:12:23;;;;;;;1.73;1.37;;;17.30;99.90;;;;;;5035250;28;20644;-81
2022/09/17 12:15:21;;;;;;;1.53;1.43;;;17.40;99.90;;;;;;5045362;28;20764;-83
2022/09/17 12:18:13;;;;;;;1.40;1.30;;;17.60;99.90;;;;;;5031129;28;20438;-79
2022/09/17 12:21:01;;;;;;;1.90;1.37;;;18.00;99.90;;;;;;5025287;28;20457;-81
2022/09/17 12:23:38;;;;;;;1.90;1.53;;;17.60;99.90;;;;;;5030757;28;20441;-81
2022/09/17 12:26:43;;;;;;;2.50;1.50;;;17.50;99.90;;;;;;5031938;28;20472;-80
2022/09/17 12:29:09;;;;;;;1.40;1.30;;;17.50;99.90;;;;;;5036706;28;20907;-80
2022/09/17 12:31:59;;;;;;;3.13;1.63;;;17.60;99.90;;;;;;5033275;28;20486;-83
2022/09/17 12:34:52;;;;;;;2.13;1.63;;;17.40;99.90;;;;;;5036951;28;20472;-85
2022/09/17 12:37:48;;;;;;;7.27;2.20;;;17.00;99.90;;;;;;5032630;28;20750;-84
2022/09/17 12:40:26;;;;;;;5.13;3.77;;;16.90;99.90;;;;;;5033870;28;20434;-81
2022/09/17 12:43:36;;;;;;;1.20;1.10;;;17.40;99.90;;;;;;5037519;28;20434;-85
2022/09/17 12:46:22;;;;;;;2.20;2.00;;;17.50;99.90;;;;;;5032858;28;20666;-82
2022/09/17 12:49:06;;;;;;;2.07;1.30;;;17.70;99.90;;;;;;5032651;28;20441;-80
2022/09/17 12:51:45;;;;;;;1.67;1.40;;;17.50;99.90;;;;;;5050046;28;20438;-79
2022/09/17 12:54:34;;;;;;;1.40;1.10;;;17.70;99.90;;;;;;5036581;28;20449;-82
2022/09/17 12:57:27;;;;;;;1.53;1.10;;;18.20;99.90;;;;;;5036631;28;21018;-83
2022/09/17 13:00:07;;;;;;;2.43;0.97;;;18.40;99.90;;;;;;5033674;28;20424;-82
2022/09/17 13:02:52;;;;;;;1.53;1.10;;;18.30;99.90;;;;;;5037582;28;20452;-85
2022/09/17 13:06:02;;;;;;;1.87;0.93;;;18.40;99.90;;;;;;5032155;28;20438;-81
2022/09/17 13:09:17;;;;;;;1.57;1.23;;;18.50;99.90;;;;;;5035570;28;20515;-80
2022/09/17 13:12:05;;;;;;;2.83;1.20;;;18.70;99.90;;;;;;5031717;28;20438;-84
2022/09/17 13:14:50;;;;;;;1.23;1.13;;;18.10;99.90;;;;;;5031998;28;20474;-82
2022/09/17 13:17:48;;;;;;;0.70;0.70;;;17.70;99.90;;;;;;5026279;28;20448;-82
2022/09/17 13:20:53;;;;;;;5.07;1.60;;;17.40;99.90;;;;;;5024821;28;20425;-83
2022/09/17 13:23:50;;;;;;;3.67;1.70;;;17.40;99.90;;;;;;5027471;28;20628;-81
2022/09/17 13:26:31;;;;;;;2.43;1.30;;;17.30;99.90;;;;;;5009791;28;20494;-81
2022/09/17 13:28:58;;;;;;;2.50;1.37;;;17.10;99.90;;;;;;5021175;28;20496;-80
2022/09/17 13:31:33;;;;;;;2.03;1.03;;;17.20;99.90;;;;;;5029028;28;20453;-80